sensor_id;sensor_type;location;lat;lon;timestamp;pressure;altitude;pressure_sealevel;temperature;humidity
68807;BME280;55800;54.272;18.558;2023-01-20T00:01:48;100337.94;;;0.59;75.10
68807;BME280;55800;54.272;18.558;2023-01-20T00:04:17;100351.16;;;0.55;75.09
68807;BME280;55800;54.272;18.558;2023-01-20T00:06:47;100338.91;;;0.49;75.07
68807;BME280;55800;54.272;18.558;2023-01-20T00:09:18;100359.94;;;0.45;75.05
68807;BME280;55800;54.272;18.558;2023-01-20T00:11:48;100360.88;;;0.39;75.00
68807;BME280;55800;54.272;18.558;2023-01-20T00:14:17;100357.41;;;0.33;75.11
68807;BME280;55800;54.272;18.558;2023-01-20T00:16:46;100360.06;;;0.27;75.02
68807;BME280;55800;54.272;18.558;2023-01-20T00:19:16;100369.72;;;0.22;75.03
68807;BME280;55800;54.272;18.558;2023-01-20T00:21:45;100368.88;;;0.17;74.96
68807;BME280;55800;54.272;18.558;2023-01-20T00:24:14;100373.25;;;0.09;74.79
68807;BME280;55800;54.272;18.558;2023-01-20T00:26:45;100391.69;;;0.04;74.67
68807;BME280;55800;54.272;18.558;2023-01-20T00:29:15;100396.09;;;-0.03;74.83
68807;BME280;55800;54.272;18.558;2023-01-20T00:31:44;100396.97;;;-0.08;75.00
68807;BME280;55800;54.272;18.558;2023-01-20T00:34:13;100395.22;;;-0.12;74.68
68807;BME280;55800;54.272;18.558;2023-01-20T00:36:43;100398.75;;;-0.18;74.68
68807;BME280;55800;54.272;18.558;2023-01-20T00:39:12;100395.28;;;-0.26;75.04
68807;BME280;55800;54.272;18.558;2023-01-20T00:41:42;100404.91;;;-0.31;75.04
68807;BME280;55800;54.272;18.558;2023-01-20T00:44:12;100409.28;;;-0.36;74.75
68807;BME280;55800;54.272;18.558;2023-01-20T00:46:43;100415.41;;;-0.40;75.02
68807;BME280;55800;54.272;18.558;2023-01-20T00:49:12;100411.03;;;-0.44;74.77
68807;BME280;55800;54.272;18.558;2023-01-20T00:51:42;100413.69;;;-0.48;74.82
68807;BME280;55800;54.272;18.558;2023-01-20T00:54:11;100417.19;;;-0.52;74.90
68807;BME280;55800;54.272;18.558;2023-01-20T00:56:41;100412.81;;;-0.58;75.30
68807;BME280;55800;54.272;18.558;2023-01-20T00:59:11;100421.56;;;-0.66;75.25
68807;BME280;55800;54.272;18.558;2023-01-20T01:01:41;100416.31;;;-0.72;75.16
68807;BME280;55800;54.272;18.558;2023-01-20T01:04:12;100418.94;;;-0.72;75.15
68807;BME280;55800;54.272;18.558;2023-01-20T01:06:41;100420.69;;;-0.71;75.08
68807;BME280;55800;54.272;18.558;2023-01-20T01:09:10;100426.81;;;-0.71;74.84
68807;BME280;55800;54.272;18.558;2023-01-20T01:11:40;100430.31;;;-0.81;75.19
68807;BME280;55800;54.272;18.558;2023-01-20T01:14:09;100427.66;;;-0.83;75.16
68807;BME280;55800;54.272;18.558;2023-01-20T01:16:40;100436.44;;;-0.84;75.13
68807;BME280;55800;54.272;18.558;2023-01-20T01:19:09;100437.31;;;-0.86;75.27
68807;BME280;55800;54.272;18.558;2023-01-20T01:21:39;100435.56;;;-0.92;75.29
68807;BME280;55800;54.272;18.558;2023-01-20T01:24:08;100441.66;;;-0.93;75.71
68807;BME280;55800;54.272;18.558;2023-01-20T01:26:38;100442.56;;;-0.94;75.48
68807;BME280;55800;54.272;18.558;2023-01-20T01:29:07;100438.16;;;-0.93;75.32
68807;BME280;55800;54.272;18.558;2023-01-20T01:31:38;100433.78;;;-0.94;75.30
68807;BME280;55800;54.272;18.558;2023-01-20T01:34:07;100432.94;;;-0.98;75.27
68807;BME280;55800;54.272;18.558;2023-01-20T01:36:37;100435.53;;;-1.05;75.96
68807;BME280;55800;54.272;18.558;2023-01-20T01:39:06;100433.75;;;-1.14;76.24
68807;BME280;55800;54.272;18.558;2023-01-20T01:41:36;100428.50;;;-1.12;75.57
68807;BME280;55800;54.272;18.558;2023-01-20T01:44:07;100440.75;;;-1.11;75.61
68807;BME280;55800;54.272;18.558;2023-01-20T01:46:39;100436.38;;;-1.20;76.21
68807;BME280;55800;54.272;18.558;2023-01-20T01:49:12;100430.25;;;-1.17;76.08
68807;BME280;55800;54.272;18.558;2023-01-20T01:51:48;100423.25;;;-1.21;76.40
68807;BME280;55800;54.272;18.558;2023-01-20T01:54:22;100432.88;;;-1.22;76.31
68807;BME280;55800;54.272;18.558;2023-01-20T01:56:53;100441.63;;;-1.21;75.80
68807;BME280;55800;54.272;18.558;2023-01-20T01:59:22;100448.63;;;-1.23;75.90
68807;BME280;55800;54.272;18.558;2023-01-20T02:01:54;100454.69;;;-1.29;76.25
68807;BME280;55800;54.272;18.558;2023-01-20T02:04:25;100446.84;;;-1.27;76.14
68807;BME280;55800;54.272;18.558;2023-01-20T02:06:58;100455.59;;;-1.30;76.42
68807;BME280;55800;54.272;18.558;2023-01-20T02:09:29;100452.94;;;-1.27;76.01
68807;BME280;55800;54.272;18.558;2023-01-20T02:12:01;100451.22;;;-1.28;76.03
68807;BME280;55800;54.272;18.558;2023-01-20T02:14:35;100452.97;;;-1.30;75.79
68807;BME280;55800;54.272;18.558;2023-01-20T02:17:17;100455.56;;;-1.33;76.05
68807;BME280;55800;54.272;18.558;2023-01-20T02:23:07;100470.41;;;-1.35;75.56
68807;BME280;55800;54.272;18.558;2023-01-20T02:26:05;100470.41;;;-1.36;75.63
68807;BME280;55800;54.272;18.558;2023-01-20T02:29:08;100465.16;;;-1.41;76.18
68807;BME280;55800;54.272;18.558;2023-01-20T02:32:11;100470.41;;;-1.42;76.73
68807;BME280;55800;54.272;18.558;2023-01-20T02:34:47;100469.53;;;-1.44;76.59
68807;BME280;55800;54.272;18.558;2023-01-20T02:37:24;100473.03;;;-1.42;76.95
68807;BME280;55800;54.272;18.558;2023-01-20T02:40:04;100466.91;;;-1.38;77.07
68807;BME280;55800;54.272;18.558;2023-01-20T02:42:44;100474.78;;;-1.38;76.99
68807;BME280;55800;54.272;18.558;2023-01-20T02:45:23;100479.16;;;-1.40;76.85
68807;BME280;55800;54.272;18.558;2023-01-20T02:47:57;100481.75;;;-1.39;76.97
68807;BME280;55800;54.272;18.558;2023-01-20T02:50:36;100486.13;;;-1.42;77.16
68807;BME280;55800;54.272;18.558;2023-01-20T02:53:08;100473.88;;;-1.43;77.42
68807;BME280;55800;54.272;18.558;2023-01-20T02:55:44;100479.16;;;-1.40;77.22
68807;BME280;55800;54.272;18.558;2023-01-20T02:58:20;100473.03;;;-1.38;77.07
68807;BME280;55800;54.272;18.558;2023-01-20T03:00:54;100490.53;;;-1.34;76.73
68807;BME280;55800;54.272;18.558;2023-01-20T03:03:31;100486.13;;;-1.39;76.99
68807;BME280;55800;54.272;18.558;2023-01-20T03:06:04;100498.34;;;-1.43;77.09
68807;BME280;55800;54.272;18.558;2023-01-20T03:08:36;100488.75;;;-1.41;77.09
68807;BME280;55800;54.272;18.558;2023-01-20T03:11:09;100496.59;;;-1.39;76.77
68807;BME280;55800;54.272;18.558;2023-01-20T03:13:41;100504.44;;;-1.44;77.04
68807;BME280;55800;54.272;18.558;2023-01-20T03:16:14;100506.19;;;-1.47;77.04
68807;BME280;55800;54.272;18.558;2023-01-20T03:18:46;100504.47;;;-1.48;77.31
68807;BME280;55800;54.272;18.558;2023-01-20T03:21:17;100507.09;;;-1.42;77.00
68807;BME280;55800;54.272;18.558;2023-01-20T03:23:49;100496.56;;;-1.51;77.28
68807;BME280;55800;54.272;18.558;2023-01-20T03:26:21;100506.16;;;-1.52;77.52
68807;BME280;55800;54.272;18.558;2023-01-20T03:28:50;100507.91;;;-1.52;77.57
68807;BME280;55800;54.272;18.558;2023-01-20T03:31:24;100516.69;;;-1.49;77.52
68807;BME280;55800;54.272;18.558;2023-01-20T03:33:57;100519.28;;;-1.53;77.49
68807;BME280;55800;54.272;18.558;2023-01-20T03:36:29;100512.28;;;-1.58;77.38
68807;BME280;55800;54.272;18.558;2023-01-20T03:38:59;100527.13;;;-1.58;77.28
68807;BME280;55800;54.272;18.558;2023-01-20T03:41:35;100521.84;;;-1.61;77.31
68807;BME280;55800;54.272;18.558;2023-01-20T03:44:11;100527.97;;;-1.61;77.37
68807;BME280;55800;54.272;18.558;2023-01-20T03:46:45;100533.22;;;-1.61;77.30
68807;BME280;55800;54.272;18.558;2023-01-20T03:49:22;100528.88;;;-1.52;77.21
68807;BME280;55800;54.272;18.558;2023-01-20T03:52:01;100538.53;;;-1.47;76.91
68807;BME280;55800;54.272;18.558;2023-01-20T03:54:36;100533.28;;;-1.53;76.73
68807;BME280;55800;54.272;18.558;2023-01-20T03:57:11;100543.69;;;-1.59;77.29
68807;BME280;55800;54.272;18.558;2023-01-20T03:59:44;100541.94;;;-1.59;77.33
68807;BME280;55800;54.272;18.558;2023-01-20T04:02:16;100543.69;;;-1.59;77.17
68807;BME280;55800;54.272;18.558;2023-01-20T04:04:49;100554.19;;;-1.59;77.20
68807;BME280;55800;54.272;18.558;2023-01-20T04:07:23;100555.91;;;-1.64;77.11
68807;BME280;55800;54.272;18.558;2023-01-20T04:09:56;100551.56;;;-1.61;77.18
68807;BME280;55800;54.272;18.558;2023-01-20T04:12:27;100556.81;;;-1.64;77.00
68807;BME280;55800;54.272;18.558;2023-01-20T04:14:56;100562.03;;;-1.61;77.09
68807;BME280;55800;54.272;18.558;2023-01-20T04:17:27;100574.28;;;-1.60;77.08
68807;BME280;55800;54.272;18.558;2023-01-20T04:20:02;100578.66;;;-1.62;77.00
68807;BME280;55800;54.272;18.558;2023-01-20T04:22:38;100585.63;;;-1.64;77.17
68807;BME280;55800;54.272;18.558;2023-01-20T04:25:15;100579.53;;;-1.58;77.02
68807;BME280;55800;54.272;18.558;2023-01-20T04:27:45;100583.88;;;-1.62;76.89
68807;BME280;55800;54.272;18.558;2023-01-20T04:30:15;100578.63;;;-1.66;77.11
68807;BME280;55800;54.272;18.558;2023-01-20T04:32:45;100587.38;;;-1.66;77.01
68807;BME280;55800;54.272;18.558;2023-01-20T04:35:17;100586.47;;;-1.65;77.31
68807;BME280;55800;54.272;18.558;2023-01-20T04:37:47;100587.38;;;-1.61;77.54
68807;BME280;55800;54.272;18.558;2023-01-20T04:40:16;100588.25;;;-1.61;77.18
68807;BME280;55800;54.272;18.558;2023-01-20T04:42:46;100576.00;;;-1.63;77.13
68807;BME280;55800;54.272;18.558;2023-01-20T04:45:15;100589.09;;;-1.65;77.41
68807;BME280;55800;54.272;18.558;2023-01-20T04:47:45;100588.22;;;-1.67;77.21
68807;BME280;55800;54.272;18.558;2023-01-20T04:50:16;100587.38;;;-1.66;77.35
68807;BME280;55800;54.272;18.558;2023-01-20T04:52:45;100591.72;;;-1.63;77.32
68807;BME280;55800;54.272;18.558;2023-01-20T04:55:15;100597.84;;;-1.63;77.29
68807;BME280;55800;54.272;18.558;2023-01-20T04:57:46;100604.88;;;-1.62;77.15
68807;BME280;55800;54.272;18.558;2023-01-20T05:00:16;100597.88;;;-1.58;76.98
68807;BME280;55800;54.272;18.558;2023-01-20T05:02:47;100601.34;;;-1.62;76.78
68807;BME280;55800;54.272;18.558;2023-01-20T05:05:18;100611.84;;;-1.61;77.47
68807;BME280;55800;54.272;18.558;2023-01-20T05:08:03;100614.50;;;-1.56;77.30
68807;BME280;55800;54.272;18.558;2023-01-20T05:10:33;100613.66;;;-1.53;77.26
68807;BME280;55800;54.272;18.558;2023-01-20T05:13:03;100618.88;;;-1.53;77.43
68807;BME280;55800;54.272;18.558;2023-01-20T05:15:32;100634.63;;;-1.55;77.38
68807;BME280;55800;54.272;18.558;2023-01-20T05:18:02;100640.72;;;-1.54;77.45
68807;BME280;55800;54.272;18.558;2023-01-20T05:20:32;100645.09;;;-1.52;77.46
68807;BME280;55800;54.272;18.558;2023-01-20T05:23:02;100639.88;;;-1.50;77.49
68807;BME280;55800;54.272;18.558;2023-01-20T05:25:31;100646.00;;;-1.50;77.24
68807;BME280;55800;54.272;18.558;2023-01-20T05:28:00;100646.91;;;-1.46;77.42
68807;BME280;55800;54.272;18.558;2023-01-20T05:30:29;100639.91;;;-1.47;77.34
68807;BME280;55800;54.272;18.558;2023-01-20T05:32:59;100645.13;;;-1.46;77.52
68807;BME280;55800;54.272;18.558;2023-01-20T05:35:29;100643.41;;;-1.48;77.68
68807;BME280;55800;54.272;18.558;2023-01-20T05:37:59;100651.28;;;-1.44;77.52
68807;BME280;55800;54.272;18.558;2023-01-20T05:40:28;100664.38;;;-1.45;77.54
68807;BME280;55800;54.272;18.558;2023-01-20T05:42:58;100661.75;;;-1.48;77.52
68807;BME280;55800;54.272;18.558;2023-01-20T05:45:28;100670.47;;;-1.48;77.44
68807;BME280;55800;54.272;18.558;2023-01-20T05:47:59;100678.38;;;-1.45;77.60
68807;BME280;55800;54.272;18.558;2023-01-20T05:50:29;100681.03;;;-1.40;77.43
68807;BME280;55800;54.272;18.558;2023-01-20T05:52:59;100682.78;;;-1.39;77.46
68807;BME280;55800;54.272;18.558;2023-01-20T05:55:29;100683.63;;;-1.43;77.47
68807;BME280;55800;54.272;18.558;2023-01-20T05:58:01;100688.06;;;-1.38;77.31
68807;BME280;55800;54.272;18.558;2023-01-20T06:00:30;100681.97;;;-1.29;76.90
68807;BME280;55800;54.272;18.558;2023-01-20T06:03:00;100681.91;;;-1.35;76.98
68807;BME280;55800;54.272;18.558;2023-01-20T06:05:29;100681.03;;;-1.39;77.08
68807;BME280;55800;54.272;18.558;2023-01-20T06:08:00;100684.50;;;-1.41;77.13
68807;BME280;55800;54.272;18.558;2023-01-20T06:10:30;100692.34;;;-1.46;77.24
68807;BME280;55800;54.272;18.558;2023-01-20T06:12:59;100701.97;;;-1.43;77.46
68807;BME280;55800;54.272;18.558;2023-01-20T06:15:28;100709.84;;;-1.43;77.32
68807;BME280;55800;54.272;18.558;2023-01-20T06:17:57;100708.09;;;-1.41;77.33
68807;BME280;55800;54.272;18.558;2023-01-20T06:20:27;100715.13;;;-1.40;77.04
68807;BME280;55800;54.272;18.558;2023-01-20T06:22:57;100722.06;;;-1.45;77.10
68807;BME280;55800;54.272;18.558;2023-01-20T06:25:27;100722.06;;;-1.47;77.35
68807;BME280;55800;54.272;18.558;2023-01-20T06:27:57;100732.53;;;-1.48;77.35
68807;BME280;55800;54.272;18.558;2023-01-20T06:30:28;100751.78;;;-1.46;77.37
68807;BME280;55800;54.272;18.558;2023-01-20T06:32:58;100757.88;;;-1.46;77.41
68807;BME280;55800;54.272;18.558;2023-01-20T06:35:27;100757.03;;;-1.45;77.37
68807;BME280;55800;54.272;18.558;2023-01-20T06:37:57;100757.91;;;-1.43;77.40
68807;BME280;55800;54.272;18.558;2023-01-20T06:40:27;100769.28;;;-1.42;77.33
68807;BME280;55800;54.272;18.558;2023-01-20T06:42:57;100775.38;;;-1.42;77.45
68807;BME280;55800;54.272;18.558;2023-01-20T06:45:27;100786.81;;;-1.38;77.35
68807;BME280;55800;54.272;18.558;2023-01-20T06:47:56;100792.94;;;-1.36;77.28
68807;BME280;55800;54.272;18.558;2023-01-20T06:50:25;100805.16;;;-1.35;77.37
68807;BME280;55800;54.272;18.558;2023-01-20T06:52:54;100805.22;;;-1.34;77.20
68807;BME280;55800;54.272;18.558;2023-01-20T06:55:23;100813.97;;;-1.32;77.33
68807;BME280;55800;54.272;18.558;2023-01-20T06:57:55;100821.00;;;-1.28;77.24
68807;BME280;55800;54.272;18.558;2023-01-20T07:00:24;100825.34;;;-1.28;77.10
68807;BME280;55800;54.272;18.558;2023-01-20T07:02:53;100834.09;;;-1.26;77.15
68807;BME280;55800;54.272;18.558;2023-01-20T07:05:22;100839.34;;;-1.26;77.12
68807;BME280;55800;54.272;18.558;2023-01-20T07:07:52;100849.84;;;-1.26;77.29
68807;BME280;55800;54.272;18.558;2023-01-20T07:10:21;100855.09;;;-1.26;77.24
68807;BME280;55800;54.272;18.558;2023-01-20T07:12:51;100854.25;;;-1.25;77.33
68807;BME280;55800;54.272;18.558;2023-01-20T07:15:21;100867.38;;;-1.22;77.42
68807;BME280;55800;54.272;18.558;2023-01-20T07:17:51;100866.53;;;-1.21;77.37
68807;BME280;55800;54.272;18.558;2023-01-20T07:20:20;100871.78;;;-1.20;77.31
68807;BME280;55800;54.272;18.558;2023-01-20T07:22:50;100882.25;;;-1.18;77.46
68807;BME280;55800;54.272;18.558;2023-01-20T07:25:19;100884.94;;;-1.17;77.26
68807;BME280;55800;54.272;18.558;2023-01-20T07:27:49;100896.31;;;-1.15;77.13
68807;BME280;55800;54.272;18.558;2023-01-20T07:30:18;100906.81;;;-1.15;77.26
68807;BME280;55800;54.272;18.558;2023-01-20T07:32:49;100903.31;;;-1.12;77.21
68807;BME280;55800;54.272;18.558;2023-01-20T07:35:19;100910.28;;;-1.14;77.16
68807;BME280;55800;54.272;18.558;2023-01-20T07:37:48;100908.53;;;-1.14;77.18
68807;BME280;55800;54.272;18.558;2023-01-20T07:40:18;100920.78;;;-1.14;77.32
68807;BME280;55800;54.272;18.558;2023-01-20T07:42:47;100921.66;;;-1.12;77.25
68807;BME280;55800;54.272;18.558;2023-01-20T07:45:17;100929.56;;;-1.11;77.25
68807;BME280;55800;54.272;18.558;2023-01-20T07:47:46;100936.56;;;-1.10;77.21
68807;BME280;55800;54.272;18.558;2023-01-20T07:50:17;100928.72;;;-1.08;77.08
68807;BME280;55800;54.272;18.558;2023-01-20T07:52:46;100936.63;;;-1.07;77.24
68807;BME280;55800;54.272;18.558;2023-01-20T07:55:15;100944.50;;;-1.05;77.26
68807;BME280;55800;54.272;18.558;2023-01-20T07:57:45;100947.13;;;-1.04;77.32
68807;BME280;55800;54.272;18.558;2023-01-20T08:00:15;100950.69;;;-1.00;77.20
68807;BME280;55800;54.272;18.558;2023-01-20T08:02:45;100954.19;;;-0.98;77.21
68807;BME280;55800;54.272;18.558;2023-01-20T08:05:18;100956.81;;;-0.95;77.33
68807;BME280;55800;54.272;18.558;2023-01-20T08:07:50;100963.03;;;-0.89;77.30
68807;BME280;55800;54.272;18.558;2023-01-20T08:10:19;100964.78;;;-0.89;77.19
68807;BME280;55800;54.272;18.558;2023-01-20T08:12:48;100966.53;;;-0.90;77.35
68807;BME280;55800;54.272;18.558;2023-01-20T08:15:18;100963.06;;;-0.84;77.10
68807;BME280;55800;54.272;18.558;2023-01-20T08:17:51;100975.34;;;-0.82;77.10
68807;BME280;55800;54.272;18.558;2023-01-20T08:20:22;100977.97;;;-0.83;77.07
68807;BME280;55800;54.272;18.558;2023-01-20T08:22:52;100969.22;;;-0.81;77.25
68807;BME280;55800;54.272;18.558;2023-01-20T08:25:21;100978.03;;;-0.77;77.21
68807;BME280;55800;54.272;18.558;2023-01-20T08:27:51;100981.50;;;-0.78;77.22
68807;BME280;55800;54.272;18.558;2023-01-20T08:30:20;100981.50;;;-0.78;77.28
68807;BME280;55800;54.272;18.558;2023-01-20T08:32:50;100987.63;;;-0.76;77.39
68807;BME280;55800;54.272;18.558;2023-01-20T08:35:20;100994.66;;;-0.73;77.40
68807;BME280;55800;54.272;18.558;2023-01-20T08:37:51;100986.84;;;-0.69;77.38
68807;BME280;55800;54.272;18.558;2023-01-20T08:40:20;100999.13;;;-0.68;77.33
68807;BME280;55800;54.272;18.558;2023-01-20T08:42:50;100999.13;;;-0.65;76.53
68807;BME280;55800;54.272;18.558;2023-01-20T08:45:19;100993.88;;;-0.65;77.17
68807;BME280;55800;54.272;18.558;2023-01-20T08:47:49;100990.41;;;-0.64;77.35
68807;BME280;55800;54.272;18.558;2023-01-20T08:50:18;100998.28;;;-0.61;77.36
68807;BME280;55800;54.272;18.558;2023-01-20T08:52:51;101002.69;;;-0.58;77.36
68807;BME280;55800;54.272;18.558;2023-01-20T08:55:20;101007.09;;;-0.54;77.31
68807;BME280;55800;54.272;18.558;2023-01-20T08:57:50;101007.09;;;-0.53;77.35
68807;BME280;55800;54.272;18.558;2023-01-20T09:00:20;101003.66;;;-0.49;77.46
68807;BME280;55800;54.272;18.558;2023-01-20T09:02:50;101001.94;;;-0.45;77.30
68807;BME280;55800;54.272;18.558;2023-01-20T09:05:19;101009.81;;;-0.42;77.52
68807;BME280;55800;54.272;18.558;2023-01-20T09:07:50;101015.13;;;-0.38;77.01
68807;BME280;55800;54.272;18.558;2023-01-20T09:10:20;101026.50;;;-0.36;76.99
68807;BME280;55800;54.272;18.558;2023-01-20T09:12:49;101023.88;;;-0.36;77.26
68807;BME280;55800;54.272;18.558;2023-01-20T09:15:18;101027.41;;;-0.37;77.36
68807;BME280;55800;54.272;18.558;2023-01-20T09:17:52;101027.41;;;-0.34;77.42
68807;BME280;55800;54.272;18.558;2023-01-20T09:20:21;101025.72;;;-0.30;77.49
68807;BME280;55800;54.272;18.558;2023-01-20T09:22:53;101019.63;;;-0.25;77.43
68807;BME280;55800;54.272;18.558;2023-01-20T09:25:22;101025.75;;;-0.23;77.41
68807;BME280;55800;54.272;18.558;2023-01-20T09:27:52;101024.91;;;-0.20;77.36
68807;BME280;55800;54.272;18.558;2023-01-20T09:30:21;101031.94;;;-0.18;77.37
68807;BME280;55800;54.272;18.558;2023-01-20T09:32:50;101038.09;;;-0.16;77.18
68807;BME280;55800;54.272;18.558;2023-01-20T09:35:23;101031.09;;;-0.11;77.40
68807;BME280;55800;54.272;18.558;2023-01-20T09:37:54;101038.13;;;-0.10;77.53
68807;BME280;55800;54.272;18.558;2023-01-20T09:41:04;101034.66;;;-0.06;77.24
68807;BME280;55800;54.272;18.558;2023-01-20T09:44:03;101041.69;;;-0.05;77.36
68807;BME280;55800;54.272;18.558;2023-01-20T09:46:48;101044.34;;;0.00;77.60
68807;BME280;55800;54.272;18.558;2023-01-20T09:49:44;101038.22;;;0.03;77.32
68807;BME280;55800;54.272;18.558;2023-01-20T09:52:36;101035.63;;;0.04;77.02
68807;BME280;55800;54.272;18.558;2023-01-20T09:55:27;101039.13;;;0.06;76.78
68807;BME280;55800;54.272;18.558;2023-01-20T09:58:07;101035.66;;;0.10;76.49
68807;BME280;55800;54.272;18.558;2023-01-20T10:00:39;101035.66;;;0.10;77.25
68807;BME280;55800;54.272;18.558;2023-01-20T10:03:14;101032.16;;;0.13;77.31
68807;BME280;55800;54.272;18.558;2023-01-20T10:05:48;101030.44;;;0.15;77.19
68807;BME280;55800;54.272;18.558;2023-01-20T10:08:23;101036.56;;;0.17;76.97
68807;BME280;55800;54.272;18.558;2023-01-20T10:11:00;101022.53;;;0.18;76.75
68807;BME280;55800;54.272;18.558;2023-01-20T10:13:37;101026.97;;;0.23;77.06
68807;BME280;55800;54.272;18.558;2023-01-20T10:16:23;101022.63;;;0.27;77.39
68807;BME280;55800;54.272;18.558;2023-01-20T10:18:58;101020.88;;;0.29;77.27
68807;BME280;55800;54.272;18.558;2023-01-20T10:21:33;101025.28;;;0.33;77.34
68807;BME280;55800;54.272;18.558;2023-01-20T10:24:09;101028.78;;;0.35;77.42
68807;BME280;55800;54.272;18.558;2023-01-20T10:26:45;101033.19;;;0.39;77.06
68807;BME280;55800;54.272;18.558;2023-01-20T10:29:21;101032.34;;;0.40;76.70
68807;BME280;55800;54.272;18.558;2023-01-20T10:31:59;101030.59;;;0.43;76.59
68807;BME280;55800;54.272;18.558;2023-01-20T10:34:33;101025.34;;;0.43;76.38
68807;BME280;55800;54.272;18.558;2023-01-20T10:37:09;101026.22;;;0.47;76.46
68807;BME280;55800;54.272;18.558;2023-01-20T10:39:44;101039.38;;;0.47;76.75
68807;BME280;55800;54.272;18.558;2023-01-20T10:42:17;101042.03;;;0.48;76.89
68807;BME280;55800;54.272;18.558;2023-01-20T10:44:49;101048.16;;;0.49;76.79
68807;BME280;55800;54.272;18.558;2023-01-20T10:47:38;101049.94;;;0.53;76.90
68807;BME280;55800;54.272;18.558;2023-01-20T10:50:33;101047.31;;;0.56;77.21
68807;BME280;55800;54.272;18.558;2023-01-20T10:53:18;101044.72;;;0.59;76.93
68807;BME280;55800;54.272;18.558;2023-01-20T10:55:59;101043.81;;;0.60;77.03
68807;BME280;55800;54.272;18.558;2023-01-20T10:58:31;101054.38;;;0.61;77.30
68807;BME280;55800;54.272;18.558;2023-01-20T11:01:04;101050.00;;;0.63;76.74
68807;BME280;55800;54.272;18.558;2023-01-20T11:03:38;101047.38;;;0.65;77.34
68807;BME280;55800;54.272;18.558;2023-01-20T11:06:17;101048.25;;;0.67;76.94
68807;BME280;55800;54.272;18.558;2023-01-20T11:08:48;101061.44;;;0.70;76.58
68807;BME280;55800;54.272;18.558;2023-01-20T11:11:20;101064.97;;;0.72;76.71
68807;BME280;55800;54.272;18.558;2023-01-20T11:13:52;101072.88;;;0.78;76.85
68807;BME280;55800;54.272;18.558;2023-01-20T11:16:23;101072.84;;;0.76;76.70
68807;BME280;55800;54.272;18.558;2023-01-20T11:18:59;101083.41;;;0.78;76.37
68807;BME280;55800;54.272;18.558;2023-01-20T11:21:30;101079.03;;;0.80;76.31
68807;BME280;55800;54.272;18.558;2023-01-20T11:24:00;101074.63;;;0.79;76.46
68807;BME280;55800;54.272;18.558;2023-01-20T11:26:32;101071.13;;;0.80;76.44
68807;BME280;55800;54.272;18.558;2023-01-20T11:29:26;101076.41;;;0.80;76.83
68807;BME280;55800;54.272;18.558;2023-01-20T11:31:57;101085.19;;;0.82;76.42
68807;BME280;55800;54.272;18.558;2023-01-20T11:34:28;101091.31;;;0.87;76.45
68807;BME280;55800;54.272;18.558;2023-01-20T11:37:17;101089.59;;;0.86;76.83
68807;BME280;55800;54.272;18.558;2023-01-20T11:40:00;101088.69;;;0.84;76.27
68807;BME280;55800;54.272;18.558;2023-01-20T11:42:42;101088.69;;;0.87;76.99
68807;BME280;55800;54.272;18.558;2023-01-20T11:45:29;101089.56;;;0.89;77.08
68807;BME280;55800;54.272;18.558;2023-01-20T11:48:03;101097.50;;;0.91;76.72
68807;BME280;55800;54.272;18.558;2023-01-20T11:50:35;101091.38;;;0.96;76.87
68807;BME280;55800;54.272;18.558;2023-01-20T11:53:23;101094.91;;;0.95;76.40
68807;BME280;55800;54.272;18.558;2023-01-20T11:55:54;101104.56;;;0.99;76.57
68807;BME280;55800;54.272;18.558;2023-01-20T11:58:26;101096.66;;;1.01;76.95
68807;BME280;55800;54.272;18.558;2023-01-20T12:01:02;101092.28;;;1.04;76.08
68807;BME280;55800;54.272;18.558;2023-01-20T12:04:04;101094.06;;;1.07;77.00
68807;BME280;55800;54.272;18.558;2023-01-20T12:06:45;101098.47;;;1.09;77.01
68807;BME280;55800;54.272;18.558;2023-01-20T12:09:20;101101.97;;;1.13;77.08
68807;BME280;55800;54.272;18.558;2023-01-20T12:11:54;101109.00;;;1.15;76.36
68807;BME280;55800;54.272;18.558;2023-01-20T12:14:28;101109.03;;;1.20;76.75
68807;BME280;55800;54.272;18.558;2023-01-20T12:17:09;101109.06;;;1.23;76.77
68807;BME280;55800;54.272;18.558;2023-01-20T12:19:52;101110.78;;;1.25;76.93
68807;BME280;55800;54.272;18.558;2023-01-20T12:22:26;101119.56;;;1.27;77.11
68807;BME280;55800;54.272;18.558;2023-01-20T12:25:03;101131.03;;;1.31;77.07
68807;BME280;55800;54.272;18.558;2023-01-20T12:27:44;101135.41;;;1.30;76.14
68807;BME280;55800;54.272;18.558;2023-01-20T12:30:39;101147.72;;;1.34;77.09
68807;BME280;55800;54.272;18.558;2023-01-20T12:33:19;101161.78;;;1.39;77.16
68807;BME280;55800;54.272;18.558;2023-01-20T12:39:27;101150.38;;;1.45;77.00
68807;BME280;55800;54.272;18.558;2023-01-20T12:42:24;101148.66;;;1.50;77.29
68807;BME280;55800;54.272;18.558;2023-01-20T12:45:04;101153.94;;;1.54;76.94
68807;BME280;55800;54.272;18.558;2023-01-20T12:47:52;101156.56;;;1.56;77.07
68807;BME280;55800;54.272;18.558;2023-01-20T12:50:37;101160.97;;;1.58;76.32
68807;BME280;55800;54.272;18.558;2023-01-20T12:53:23;101175.94;;;1.61;77.04
68807;BME280;55800;54.272;18.558;2023-01-20T12:56:03;101175.03;;;1.64;77.08
68807;BME280;55800;54.272;18.558;2023-01-20T12:58:48;101188.25;;;1.65;76.77
68807;BME280;55800;54.272;18.558;2023-01-20T13:01:33;101187.34;;;1.68;76.58
68807;BME280;55800;54.272;18.558;2023-01-20T13:07:33;101198.78;;;1.73;77.11
68807;BME280;55800;54.272;18.558;2023-01-20T13:10:14;101207.59;;;1.72;76.67
68807;BME280;55800;54.272;18.558;2023-01-20T13:12:53;101218.13;;;1.72;77.11
68807;BME280;55800;54.272;18.558;2023-01-20T13:15:28;101223.41;;;1.72;76.88
68807;BME280;55800;54.272;18.558;2023-01-20T13:18:17;101237.44;;;1.72;76.04
68807;BME280;55800;54.272;18.558;2023-01-20T13:20:51;101232.19;;;1.77;76.10
68807;BME280;55800;54.272;18.558;2023-01-20T13:23:26;101227.75;;;1.68;75.56
68807;BME280;55800;54.272;18.558;2023-01-20T13:25:58;101223.38;;;1.69;76.69